Time;durP1;ratioP1;P1;durP2;ratioP2;P2;SDS_P1;SDS_P2;PMS_P1;PMS_P2;Temp;Humidity;BMP_temperature;BMP_pressure;BME280_temperature;BME280_humidity;BME280_pressure;Samples;Min_cycle;Max_cycle;Signal;HPM_P1;HPM_P2
2021/05/11 00:01:42;;;;;;;8.48;3.13;;;;;;;15.39;100.00;96813.56;5007922;28;20093;-80
2021/05/11 00:04:08;;;;;;;5.93;3.13;;;;;;;15.43;100.00;96825.31;5003288;28;20065;-79
2021/05/11 00:06:34;;;;;;;8.45;2.83;;;;;;;15.79;100.00;96823.16;5002656;28;20043;-80
2021/05/11 00:09:01;;;;;;;7.57;3.03;;;;;;;15.90;100.00;96813.97;5004648;28;20056;-81
2021/05/11 00:11:27;;;;;;;8.90;2.75;;;;;;;15.91;100.00;96809.28;5010485;28;20034;-81
2021/05/11 00:13:53;;;;;;;7.70;2.95;;;;;;;15.91;100.00;96804.63;5013329;28;20110;-81
2021/05/11 00:16:19;;;;;;;5.80;2.90;;;;;;;15.65;100.00;96792.94;5030660;28;20436;-80
2021/05/11 00:18:45;;;;;;;8.73;2.70;;;;;;;15.93;100.00;96834.28;5012599;28;20084;-81
2021/05/11 00:21:14;;;;;;;8.13;2.25;;;;;;;16.20;100.00;96835.84;5012150;28;20065;-81
2021/05/11 00:23:40;;;;;;;8.85;2.78;;;;;;;16.14;100.00;96808.06;5012414;28;20295;-81
2021/05/11 00:26:08;;;;;;;6.82;2.33;;;;;;;16.01;100.00;96784.88;5029904;28;20052;-81
2021/05/11 00:28:34;;;;;;;7.13;2.63;;;;;;;16.01;100.00;96795.00;5012590;28;20414;-81
2021/05/11 00:31:00;;;;;;;11.75;3.00;;;;;;;15.94;100.00;96784.00;5026574;28;20046;-79
2021/05/11 00:33:26;;;;;;;4.47;2.08;;;;;;;16.08;100.00;96815.00;5027943;28;20087;-81
2021/05/11 00:35:52;;;;;;;9.85;2.30;;;;;;;16.02;100.00;96805.56;5012121;28;20050;-79
2021/05/11 00:38:18;;;;;;;6.13;2.55;;;;;;;16.02;100.00;96813.75;5029849;28;20046;-80
2021/05/11 00:40:44;;;;;;;6.10;2.50;;;;;;;15.82;100.00;96779.53;5025453;28;20036;-80
2021/05/11 00:43:11;;;;;;;6.45;2.40;;;;;;;15.82;100.00;96778.78;5034058;28;20337;-80
2021/05/11 00:45:37;;;;;;;7.35;2.50;;;;;;;15.81;100.00;96777.97;5012182;28;20149;-80
2021/05/11 00:48:03;;;;;;;7.47;2.28;;;;;;;15.87;100.00;96811.19;5012987;28;20049;-80
2021/05/11 00:50:29;;;;;;;5.65;2.40;;;;;;;15.61;100.00;96776.53;5009175;28;20073;-80
2021/05/11 00:52:56;;;;;;;5.43;2.80;;;;;;;15.73;100.00;96805.53;5014477;28;20052;-80
2021/05/11 00:55:22;;;;;;;4.72;2.53;;;;;;;15.54;100.00;96792.78;5006266;28;20050;-80
2021/05/11 00:57:49;;;;;;;5.60;2.35;;;;;;;15.50;100.00;96781.03;5008868;28;20038;-80
2021/05/11 01:00:15;;;;;;;9.10;2.47;;;;;;;15.56;100.00;96782.31;5009821;28;20046;-81
2021/05/11 01:02:41;;;;;;;4.38;2.30;;;;;;;15.45;100.00;96763.06;5008006;28;20062;-80
2021/05/11 01:05:08;;;;;;;13.07;2.60;;;;;;;15.51;100.00;96783.38;5009101;28;20050;-81
2021/05/11 01:07:34;;;;;;;4.53;2.05;;;;;;;15.46;100.00;96777.44;5012260;28;20038;-80
2021/05/11 01:10:00;;;;;;;9.00;2.30;;;;;;;15.52;100.00;96770.53;5015261;28;20102;-81
2021/05/11 01:12:27;;;;;;;7.25;2.08;;;;;;;15.53;100.00;96767.47;5019215;28;20050;-80
2021/05/11 01:14:53;;;;;;;3.80;2.05;;;;;;;15.59;100.00;96759.72;5012315;28;20109;-80
2021/05/11 01:17:29;;;;;;;5.72;2.50;;;;;;;15.46;100.00;96742.00;5029454;28;20046;-81
2021/05/11 01:20:06;;;;;;;5.80;2.40;;;;;;;15.46;100.00;96769.28;5011734;28;20048;-81
2021/05/11 01:25:28;;;;;;;4.95;1.92;;;;;;;15.20;100.00;96794.56;5029331;28;20121;-81
2021/05/11 01:28:17;;;;;;;11.52;2.50;;;;;;;15.16;100.00;96820.19;4994658;28;20042;-80
2021/05/11 01:52:40;;;;;;;5.70;1.70;;;;;;;15.77;100.00;96785.31;5020415;28;20045;-79
2021/05/11 02:25:09;;;;;;;11.27;2.30;;;;;;;15.27;100.00;96774.81;5014275;28;20137;-80
2021/05/11 02:27:37;;;;;;;5.40;2.50;;;;;;;15.16;100.00;96785.53;4995724;28;20158;-80
2021/05/11 02:30:08;;;;;;;8.63;2.85;;;;;;;15.12;100.00;96784.72;5014675;28;20494;-78
2021/05/11 02:32:41;;;;;;;6.03;2.45;;;;;;;15.10;100.00;96786.22;4964070;28;20045;-79
2021/05/11 02:35:09;;;;;;;9.20;3.00;;;;;;;15.08;100.00;96783.06;5015236;28;20045;-79
2021/05/11 02:37:35;;;;;;;6.20;2.50;;;;;;;14.98;100.00;96782.53;4998720;28;20057;-79
2021/05/11 02:40:02;;;;;;;7.43;2.75;;;;;;;14.97;100.00;96775.50;5005044;28;20099;-79
2021/05/11 02:42:28;;;;;;;10.93;2.78;;;;;;;15.01;100.00;96769.31;5016768;28;20057;-79
2021/05/11 02:44:57;;;;;;;10.98;2.63;;;;;;;14.98;100.00;96777.06;5015404;28;20042;-81
2021/05/11 02:47:23;;;;;;;8.45;2.75;;;;;;;15.02;100.00;96779.06;4996798;28;20042;-80
2021/05/11 02:49:50;;;;;;;7.53;2.92;;;;;;;14.96;100.00;96771.22;4998346;28;20050;-80
2021/05/11 02:52:17;;;;;;;5.13;2.88;;;;;;;14.94;100.00;96770.75;4999664;28;20442;-81
2021/05/11 02:54:45;;;;;;;7.05;2.75;;;;;;;15.01;100.00;96767.38;5000815;28;20030;-79
2021/05/11 02:57:11;;;;;;;6.95;2.58;;;;;;;14.99;100.00;96764.25;5009528;28;20135;-81
2021/05/11 02:59:39;;;;;;;5.13;2.35;;;;;;;14.99;100.00;96773.19;5030064;28;20049;-78
2021/05/11 03:02:08;;;;;;;7.78;2.90;;;;;;;15.02;100.00;96774.38;5004471;28;20123;-79
2021/05/11 03:04:37;;;;;;;6.70;2.55;;;;;;;14.99;100.00;96773.19;4999603;28;20050;-79
2021/05/11 03:07:03;;;;;;;10.73;3.00;;;;;;;15.05;100.00;96775.59;4999286;28;20042;-80
2021/05/11 03:09:30;;;;;;;8.52;2.80;;;;;;;14.93;100.00;96780.09;4999944;28;20053;-80
2021/05/11 03:11:56;;;;;;;10.25;3.20;;;;;;;14.90;100.00;96766.41;4983136;28;20038;-80
2021/05/11 03:14:28;;;;;;;8.35;3.03;;;;;;;14.88;100.00;96757.81;5015279;28;20045;-79
2021/05/11 03:16:57;;;;;;;8.25;3.05;;;;;;;14.95;100.00;96763.38;4997114;28;20042;-79
2021/05/11 03:19:24;;;;;;;4.85;2.72;;;;;;;14.98;100.00;96773.56;4979871;28;20482;-80
2021/05/11 03:21:50;;;;;;;6.88;2.63;;;;;;;14.96;100.00;96771.22;4996133;28;20080;-79
2021/05/11 03:24:16;;;;;;;4.63;2.08;;;;;;;14.98;100.00;96777.06;5013731;28;20129;-79
2021/05/11 03:26:49;;;;;;;7.65;2.25;;;;;;;14.90;100.00;96753.56;5014370;28;20044;-79
2021/05/11 03:29:21;;;;;;;8.32;3.05;;;;;;;14.91;100.00;96768.00;5012333;28;20573;-77
2021/05/11 03:31:47;;;;;;;8.30;2.30;;;;;;;14.92;100.00;96769.56;4996084;28;20100;-81
2021/05/11 03:34:13;;;;;;;7.13;2.20;;;;;;;14.80;100.00;96767.00;5012984;28;20046;-77
2021/05/11 03:36:39;;;;;;;9.18;2.80;;;;;;;14.82;100.00;96770.16;4996900;28;20054;-79
2021/05/11 03:39:07;;;;;;;5.97;2.50;;;;;;;14.79;100.00;96771.66;4997164;28;20052;-80
2021/05/11 03:41:39;;;;;;;8.65;2.47;;;;;;;14.78;100.00;96770.13;4980198;28;20046;-78
2021/05/11 03:44:16;;;;;;;6.43;2.30;;;;;;;14.84;100.00;96779.53;4978736;28;20338;-80
2021/05/11 03:46:42;;;;;;;4.18;2.22;;;;;;;14.82;100.00;96776.41;5017278;28;20049;-80
2021/05/11 03:49:10;;;;;;;4.78;2.17;;;;;;;14.81;100.00;96774.81;5003021;28;20077;-78
2021/05/11 03:51:37;;;;;;;5.75;2.58;;;;;;;14.82;100.00;96767.44;4984958;28;20050;-79
2021/05/11 03:54:06;;;;;;;6.47;2.40;;;;;;;14.86;100.00;96765.56;4985273;28;20409;-80
2021/05/11 03:56:36;;;;;;;5.43;2.50;;;;;;;14.90;100.00;96763.69;5017029;28;20077;-80
2021/05/11 03:59:04;;;;;;;11.50;2.45;;;;;;;14.82;100.00;96761.97;5018044;28;20050;-80
2021/05/11 04:01:32;;;;;;;5.10;2.38;;;;;;;14.87;100.00;96767.91;5017468;28;20052;-80
2021/05/11 04:03:59;;;;;;;7.00;2.53;;;;;;;14.84;100.00;96768.66;5001368;28;20057;-80
2021/05/11 04:06:26;;;;;;;5.75;2.38;;;;;;;14.92;100.00;96780.44;5037224;28;20095;-80
2021/05/11 04:16:33;;;;;;;5.45;2.97;;;;;;;15.18;100.00;96753.25;5017755;28;20128;-79
2021/05/11 04:19:00;;;;;;;6.68;3.10;;;;;;;15.19;100.00;96743.13;5034785;28;20049;-79
2021/05/11 04:21:27;;;;;;;8.90;3.42;;;;;;;15.27;100.00;96747.53;5018668;28;20041;-79
2021/05/11 04:23:55;;;;;;;6.60;3.08;;;;;;;15.29;100.00;96731.59;5036748;28;20050;-80
2021/05/11 04:26:23;;;;;;;7.97;3.10;;;;;;;15.37;100.00;96734.06;5033693;28;20460;-79
2021/05/11 04:28:51;;;;;;;7.47;3.10;;;;;;;15.43;100.00;96718.19;5025035;28;20104;-80
2021/05/11 04:31:19;;;;;;;6.85;2.85;;;;;;;15.46;100.00;96731.09;5037326;28;20042;-80
2021/05/11 04:33:46;;;;;;;8.18;3.42;;;;;;;15.42;100.00;96724.78;5003385;28;20045;-79
2021/05/11 04:36:14;;;;;;;10.70;3.53;;;;;;;15.51;100.00;96723.38;5002361;28;20144;-79
2021/05/11 04:38:42;;;;;;;5.82;3.72;;;;;;;15.54;100.00;96730.81;5037406;28;20073;-80
2021/05/11 04:41:09;;;;;;;8.55;3.30;;;;;;;15.50;100.00;96718.28;5016303;28;20057;-80
2021/05/11 04:43:37;;;;;;;9.70;3.70;;;;;;;15.41;100.00;96723.19;5016641;28;20509;-80
2021/05/11 04:46:27;;;;;;;9.23;3.83;;;;;;;15.38;100.00;96726.69;5018145;28;20046;-80
2021/05/11 04:48:54;;;;;;;8.10;3.95;;;;;;;15.35;100.00;96720.03;5000654;28;20125;-80
2021/05/11 04:51:23;;;;;;;9.75;4.18;;;;;;;15.40;100.00;96724.34;5015490;28;20514;-80
2021/05/11 04:53:50;;;;;;;7.45;4.18;;;;;;;15.40;100.00;96719.69;5014874;28;20038;-78
2021/05/11 04:56:17;;;;;;;8.60;4.47;;;;;;;15.46;100.00;96729.16;4997641;28;20042;-79
2021/05/11 04:58:43;;;;;;;7.90;5.03;;;;;;;15.49;100.00;96739.34;5017443;28;20394;-80
2021/05/11 05:01:10;;;;;;;9.70;4.90;;;;;;;15.50;100.00;96746.38;5016556;28;20060;-80
2021/05/11 05:03:40;;;;;;;9.00;4.90;;;;;;;15.46;100.00;96750.97;5019213;28;20435;-81
2021/05/11 05:06:07;;;;;;;10.98;5.00;;;;;;;15.43;100.00;96750.91;5019325;28;20042;-80
2021/05/11 05:08:33;;;;;;;10.35;4.55;;;;;;;15.40;100.00;96749.69;5019170;28;20054;-80
2021/05/11 05:11:00;;;;;;;10.35;5.05;;;;;;;15.41;100.00;96748.53;5017436;28;20052;-80
2021/05/11 05:13:27;;;;;;;11.25;4.75;;;;;;;15.44;100.00;96757.91;5001329;28;20042;-80
2021/05/11 05:15:55;;;;;;;10.93;4.80;;;;;;;15.45;100.00;96754.88;4991937;28;20160;-79
2021/05/11 05:18:22;;;;;;;12.55;4.47;;;;;;;15.47;100.00;96751.75;4978561;28;20054;-78
2021/05/11 05:20:52;;;;;;;8.48;4.07;;;;;;;15.41;100.00;96773.06;4966238;28;20054;-78
2021/05/11 05:23:20;;;;;;;11.38;4.47;;;;;;;15.40;100.00;96770.72;5015045;28;20042;-78
2021/05/11 05:26:12;;;;;;;6.55;4.13;;;;;;;15.41;100.00;96767.63;4999199;28;20053;-78
2021/05/11 05:28:40;;;;;;;7.55;4.05;;;;;;;15.39;100.00;96766.41;5018708;28;20105;-78
2021/05/11 05:31:07;;;;;;;8.07;3.65;;;;;;;15.41;100.00;96758.66;4998909;28;20050;-78
2021/05/11 05:33:38;;;;;;;7.47;3.65;;;;;;;15.46;100.00;96775.53;4999612;28;20041;-81
2021/05/11 05:36:09;;;;;;;7.20;3.95;;;;;;;15.41;100.00;96775.81;4980976;28;20049;-79
2021/05/11 05:38:39;;;;;;;6.85;3.80;;;;;;;15.49;100.00;96763.88;5004297;28;20065;-79
2021/05/11 05:41:12;;;;;;;10.50;3.83;;;;;;;15.38;100.00;96760.16;5001593;28;20088;-78
2021/05/11 05:43:39;;;;;;;8.18;4.50;;;;;;;15.44;100.00;96766.88;5004514;28;20052;-78
2021/05/11 05:46:06;;;;;;;9.07;4.50;;;;;;;15.43;100.00;96762.59;5027112;28;20065;-79
2021/05/11 05:48:32;;;;;;;7.45;4.63;;;;;;;15.67;100.00;96766.06;5027024;28;20111;-80
2021/05/11 05:51:03;;;;;;;14.32;5.32;;;;;;;15.65;100.00;96766.44;5008433;28;20045;-79
2021/05/11 05:53:37;;;;;;;7.85;4.63;;;;;;;15.70;100.00;96774.31;5006357;28;20046;-80
2021/05/11 05:56:06;;;;;;;10.27;4.85;;;;;;;15.82;100.00;96765.88;5019515;28;20045;-79
2021/05/11 05:58:34;;;;;;;8.15;4.40;;;;;;;15.92;100.00;96767.22;5034035;28;20480;-79
2021/05/11 06:01:06;;;;;;;10.07;4.93;;;;;;;15.87;100.00;96775.72;5016027;28;20050;-80
2021/05/11 06:03:37;;;;;;;8.52;4.78;;;;;;;15.98;100.00;96771.97;5020900;28;20065;-77
2021/05/11 06:06:07;;;;;;;8.02;5.03;;;;;;;15.90;100.00;96781.22;5024542;28;20064;-78
2021/05/11 06:08:35;;;;;;;7.88;4.68;;;;;;;16.08;100.00;96781.44;5017694;28;20084;-78
2021/05/11 06:13:36;;;;;;;10.02;5.30;;;;;;;16.40;100.00;96774.44;5006716;28;20045;-79
2021/05/11 06:18:48;;;;;;;;;;;;;;;16.78;100.00;96778.75;5016495;28;20038;-78
2021/05/11 06:21:15;;;;;;;13.90;5.13;;;;;;;16.80;100.00;96773.72;5002307;28;19948;-79
2021/05/11 06:23:44;;;;;;;11.95;5.40;;;;;;;16.67;100.00;96761.47;5000075;28;20037;-77
2021/05/11 06:26:13;;;;;;;15.93;5.53;;;;;;;16.56;100.00;96766.03;4984398;28;20109;-79
2021/05/11 06:28:42;;;;;;;12.25;5.43;;;;;;;16.70;100.00;96761.50;5003216;28;20064;-78
2021/05/11 06:31:09;;;;;;;11.88;5.43;;;;;;;16.76;100.00;96767.41;4981647;28;20053;-80
2021/05/11 06:33:36;;;;;;;9.35;5.40;;;;;;;16.79;100.00;96755.72;4981467;28;20105;-78
2021/05/11 06:36:03;;;;;;;8.23;5.22;;;;;;;16.84;100.00;96752.66;4989370;28;20041;-79
2021/05/11 06:38:30;;;;;;;13.02;6.13;;;;;;;16.74;100.00;96742.41;4993344;28;20041;-79
2021/05/11 06:40:58;;;;;;;9.57;6.20;;;;;;;16.70;100.00;96750.56;4997609;28;20429;-79
2021/05/11 06:43:34;;;;;;;12.27;5.43;;;;;;;16.95;100.00;96782.81;5002137;28;20050;-79
2021/05/11 06:46:13;;;;;;;13.15;6.10;;;;;;;17.03;100.00;96766.13;4980750;28;20380;-79
2021/05/11 06:53:55;;;;;;;11.35;5.93;;;;;;;17.74;100.00;96766.66;5017598;28;20065;-79
2021/05/11 06:56:22;;;;;;;12.73;5.63;;;;;;;17.56;100.00;96760.28;5001329;28;20057;-79
2021/05/11 06:58:49;;;;;;;10.38;6.07;;;;;;;17.61;100.00;96774.41;4997119;28;20054;-78
2021/05/11 07:01:20;;;;;;;10.98;6.07;;;;;;;17.70;100.00;96760.38;4996203;28;20041;-78
2021/05/11 07:03:47;;;;;;;12.88;5.85;;;;;;;17.86;100.00;96766.34;4997568;28;20060;-79
2021/05/11 07:06:17;;;;;;;13.18;6.45;;;;;;;17.67;100.00;96763.88;5018811;28;20054;-81
2021/05/11 07:13:39;;;;;;;14.35;5.80;;;;;;;18.11;100.00;96769.97;5014233;28;20053;-80
2021/05/11 07:16:07;;;;;;;17.83;5.88;;;;;;;18.40;100.00;96765.41;4979012;28;20133;-80
2021/05/11 07:18:34;;;;;;;10.68;5.90;;;;;;;18.33;100.00;96765.38;4995160;28;20140;-79
2021/05/11 07:21:01;;;;;;;10.82;5.45;;;;;;;18.67;100.00;96767.47;4992867;28;20049;-80
2021/05/11 07:23:29;;;;;;;12.73;6.60;;;;;;;18.68;100.00;96769.03;5010591;28;20053;-79
2021/05/11 07:26:25;;;;;;;9.82;5.82;;;;;;;18.79;100.00;96766.31;4998600;28;20045;-78
2021/05/11 07:31:36;;;;;;;14.05;6.13;;;;;;;18.17;100.00;96782.13;4998437;28;20049;-79
2021/05/11 07:34:05;;;;;;;14.93;6.20;;;;;;;18.28;100.00;96784.91;5017375;28;20038;-80
2021/05/11 07:36:35;;;;;;;9.95;5.68;;;;;;;18.34;100.00;96786.13;5000654;28;20042;-80
2021/05/11 07:39:02;;;;;;;12.40;6.60;;;;;;;18.18;100.00;96793.88;4995729;28;20050;-78
2021/05/11 07:41:29;;;;;;;14.10;6.30;;;;;;;17.92;100.00;96792.19;4998027;28;20131;-80
2021/05/11 07:43:57;;;;;;;14.63;6.38;;;;;;;18.13;100.00;96791.50;5001538;28;20046;-79
2021/05/11 07:56:41;;;;;;;15.55;6.38;;;;;;;18.62;100.00;96772.53;4995764;28;20038;-80
2021/05/11 08:16:06;;;;;;;13.57;5.85;;;;;;;19.02;100.00;96774.19;5015270;28;20049;-81
2021/05/11 08:18:50;;;;;;;9.75;6.05;;;;;;;19.12;100.00;96784.38;4986638;28;20045;-79
2021/05/11 08:22:19;;;;;;;13.95;5.60;;;;;;;19.35;100.00;96771.06;5011944;28;20121;-79
2021/05/11 08:29:41;;;;;;;13.32;6.60;;;;;;;19.08;100.00;96781.63;5021191;28;20046;-78
2021/05/11 08:32:08;;;;;;;11.98;6.32;;;;;;;19.01;100.00;96773.41;5008928;28;20070;-79
2021/05/11 08:34:35;;;;;;;9.07;6.35;;;;;;;19.24;100.00;96767.53;5029412;28;20045;-78
2021/05/11 08:37:05;;;;;;;14.40;7.20;;;;;;;19.43;100.00;96767.16;5006340;28;20080;-77
2021/05/11 08:39:33;;;;;;;13.88;6.93;;;;;;;19.19;100.00;96763.22;5017532;28;20047;-80
2021/05/11 08:42:00;;;;;;;10.32;6.18;;;;;;;19.43;100.00;96761.69;5031148;28;20030;-78
2021/05/11 08:44:28;;;;;;;16.05;7.20;;;;;;;19.17;100.00;96749.13;5021163;28;20053;-81
2021/05/11 08:46:54;;;;;;;15.10;7.18;;;;;;;18.86;100.00;96755.38;5006162;28;20049;-81
2021/05/11 08:49:22;;;;;;;13.85;6.68;;;;;;;19.30;100.00;96758.50;5002069;28;20037;-80
2021/05/11 08:54:38;;;;;;;11.52;6.78;;;;;;;19.27;100.00;96756.56;5016138;28;20068;-82
2021/05/11 09:25:32;;;;;;;;;;;;;;;21.33;100.00;96707.75;5019778;28;20049;-81
2021/05/11 09:28:26;;;;;;;14.32;6.63;;;;;;;21.34;100.00;96714.84;5000040;28;19953;-81
2021/05/11 09:33:33;;;;;;;15.10;5.95;;;;;;;21.89;100.00;96717.44;4997635;28;20049;-82
2021/05/11 10:47:00;;;;;;;11.38;5.00;;;;;;;30.41;45.03;96656.03;4993694;28;20166;-81
2021/05/11 10:49:36;;;;;;;9.30;4.55;;;;;;;31.66;43.22;96657.94;4989977;28;20050;-80
2021/05/11 10:52:37;;;;;;;;;;;;;;;30.93;43.70;96649.19;4996682;28;20149;-82
2021/05/11 10:55:29;;;;;;;9.20;4.60;;;;;;;31.92;42.76;96630.97;4957299;28;19937;-82
2021/05/11 10:58:06;;;;;;;7.93;4.55;;;;;;;32.12;42.07;96633.16;4963512;28;20042;-82
2021/05/11 11:00:46;;;;;;;10.55;5.38;;;;;;;32.15;40.96;96630.16;5011391;28;20112;-81
2021/05/11 11:03:23;;;;;;;9.98;5.18;;;;;;;30.29;45.19;96629.81;4993931;28;20033;-79
2021/05/11 11:05:55;;;;;;;16.17;5.03;;;;;;;31.83;42.49;96623.44;4980768;28;20054;-82
2021/05/11 11:08:26;;;;;;;13.75;5.00;;;;;;;32.04;41.87;96615.97;4996579;28;20050;-82
2021/05/11 11:11:17;;;;;;;10.40;4.32;;;;;;;31.08;43.32;96616.50;4984840;28;20064;-81
2021/05/11 11:13:46;;;;;;;7.93;3.83;;;;;;;29.93;46.59;96601.97;4979491;28;20049;-78
2021/05/11 11:16:13;;;;;;;8.98;5.05;;;;;;;30.29;47.42;96598.31;5014524;28;20050;-80
2021/05/11 11:18:41;;;;;;;8.48;4.53;;;;;;;32.00;43.93;96606.97;4997893;28;20177;-82
2021/05/11 11:23:55;;;;;;;6.85;4.53;;;;;;;33.84;40.56;96606.44;5014212;28;20049;-81
2021/05/11 11:26:29;;;;;;;14.20;4.32;;;;;;;32.29;43.60;96601.38;4980352;28;20054;-81
2021/05/11 11:29:02;;;;;;;10.33;4.60;;;;;;;34.71;36.35;96609.06;4996833;28;20076;-81
2021/05/11 11:31:32;;;;;;;9.07;4.22;;;;;;;35.94;35.19;96606.41;5013283;28;20284;-81
2021/05/11 11:34:18;;;;;;;8.70;5.35;;;;;;;34.82;36.18;96600.69;5014316;28;20457;-81
2021/05/11 11:36:49;;;;;;;10.52;5.13;;;;;;;35.01;36.18;96594.19;4999189;28;20067;-81
2021/05/11 11:39:20;;;;;;;10.00;4.93;;;;;;;34.32;36.16;96584.19;4998354;28;20112;-81
2021/05/11 11:41:50;;;;;;;11.45;5.00;;;;;;;33.74;37.50;96591.00;5023695;28;20041;-81
2021/05/11 11:44:21;;;;;;;11.80;4.88;;;;;;;32.54;38.94;96598.00;4984853;28;20050;-81
2021/05/11 11:46:57;;;;;;;11.70;4.72;;;;;;;31.42;42.34;96599.94;5002709;28;20053;-82
2021/05/11 11:49:26;;;;;;;12.38;5.20;;;;;;;32.38;39.93;96597.69;4983240;28;20119;-82
2021/05/11 11:52:07;;;;;;;10.20;4.40;;;;;;;33.97;37.71;96599.66;4981375;28;20072;-82
2021/05/11 12:00:05;;;;;;;10.15;4.35;;;;;;;32.77;40.73;96584.31;5010760;28;20384;-78
2021/05/11 12:02:32;;;;;;;12.75;4.65;;;;;;;33.69;38.71;96588.91;5013027;28;20061;-79
2021/05/11 12:05:12;;;;;;;10.85;4.88;;;;;;;32.51;40.65;96581.34;4980580;28;20440;-81
2021/05/11 12:10:25;;;;;;;12.68;4.57;;;;;;;32.14;41.48;96575.41;5016408;28;20060;-81
2021/05/11 12:12:53;;;;;;;11.68;5.00;;;;;;;31.65;44.16;96576.00;4993755;28;20497;-81
2021/05/11 12:15:21;;;;;;;8.38;5.20;;;;;;;31.82;42.59;96582.69;5004915;28;20141;-81
2021/05/11 12:17:57;;;;;;;12.90;4.43;;;;;;;31.57;43.52;96588.81;5021231;28;20062;-81
2021/05/11 12:20:25;;;;;;;11.90;4.50;;;;;;;33.01;42.40;96591.28;4987596;28;20052;-81
2021/05/11 12:23:12;;;;;;;6.90;4.70;;;;;;;33.01;40.58;96593.34;5019015;28;20132;-80
2021/05/11 12:25:39;;;;;;;9.65;4.72;;;;;;;34.68;37.54;96585.53;5017509;28;20037;-81
2021/05/11 12:28:07;;;;;;;11.77;3.60;;;;;;;34.91;37.50;96575.97;5018940;28;20068;-82
2021/05/11 12:30:42;;;;;;;11.73;4.00;;;;;;;35.36;35.94;96581.84;5002298;28;20057;-81
2021/05/11 12:33:12;;;;;;;6.78;3.58;;;;;;;33.38;39.32;96571.16;5001034;28;20042;-80
2021/05/11 12:35:41;;;;;;;8.40;4.13;;;;;;;33.93;39.14;96571.78;4986200;28;20211;-82
2021/05/11 12:38:27;;;;;;;10.45;4.25;;;;;;;32.82;41.58;96572.41;5002292;28;20478;-82
2021/05/11 12:43:48;;;;;;;10.23;3.88;;;;;;;35.38;37.66;96573.69;5038003;28;20570;-81
2021/05/11 12:46:34;;;;;;;7.63;4.05;;;;;;;35.63;37.58;96572.75;5003048;28;20497;-80
2021/05/11 12:49:10;;;;;;;10.40;4.20;;;;;;;34.36;39.60;96570.69;5003208;28;20065;-79
2021/05/11 12:51:43;;;;;;;6.65;4.00;;;;;;;34.48;38.59;96563.88;5003581;28;20038;-81
2021/05/11 12:54:49;;;;;;;10.32;4.30;;;;;;;33.25;42.23;96549.81;5002745;28;20074;-82
2021/05/11 12:57:37;;;;;;;7.78;4.50;;;;;;;33.04;42.19;96553.88;5010587;28;20362;-80
2021/05/11 13:00:13;;;;;;;8.07;3.92;;;;;;;32.51;43.48;96554.13;5023270;28;20061;-79
2021/05/11 13:16:59;;;;;;;9.32;4.60;;;;;;;35.52;35.65;96547.34;5024597;28;20125;-80
2021/05/11 13:27:26;;;;;;;10.82;5.05;;;;;;;36.86;33.47;96535.69;5032198;28;20045;-76
2021/05/11 13:35:02;;;;;;;12.73;4.95;;;;;;;35.52;35.89;96539.69;5037117;28;20100;-75
2021/05/11 13:37:29;;;;;;;12.93;4.60;;;;;;;35.93;35.10;96548.50;5039370;28;20137;-76
2021/05/11 13:39:56;;;;;;;14.07;4.68;;;;;;;34.42;38.25;96548.25;5038756;28;20044;-77
2021/05/11 13:42:22;;;;;;;10.30;4.30;;;;;;;34.57;37.30;96534.06;5028587;28;20131;-79
2021/05/11 13:44:49;;;;;;;13.60;4.50;;;;;;;34.74;36.85;96537.75;5051909;28;20040;-76
2021/05/11 13:47:19;;;;;;;13.75;4.32;;;;;;;33.44;40.27;96536.28;5042241;28;20056;-76
2021/05/11 13:49:49;;;;;;;11.48;4.03;;;;;;;31.38;43.79;96532.19;5031760;28;20147;-77
2021/05/11 13:52:16;;;;;;;16.25;5.00;;;;;;;31.14;43.85;96522.31;5044368;28;20042;-77
2021/05/11 13:54:44;;;;;;;9.13;4.30;;;;;;;30.15;47.70;96536.31;5040210;28;20052;-76
2021/05/11 14:02:48;;;;;;;12.80;4.78;;;;;;;29.93;49.30;96540.56;5035439;28;20060;-76
2021/05/11 14:05:16;;;;;;;10.57;4.38;;;;;;;28.82;52.61;96543.81;5032310;28;20065;-77
2021/05/11 14:07:43;;;;;;;14.77;5.40;;;;;;;27.84;55.83;96534.56;5035698;28;20072;-80
2021/05/11 14:10:10;;;;;;;11.30;4.40;;;;;;;27.31;64.74;96541.25;5035279;28;20053;-76
2021/05/11 14:12:37;;;;;;;11.52;5.40;;;;;;;26.91;70.61;96536.28;5034059;28;20041;-77
2021/05/11 14:15:06;;;;;;;14.27;5.00;;;;;;;26.80;71.26;96543.41;5048419;28;20104;-79
2021/05/11 14:17:34;;;;;;;14.13;5.28;;;;;;;27.33;67.21;96545.16;5018499;28;20053;-77
2021/05/11 14:20:01;;;;;;;12.10;5.70;;;;;;;28.22;61.19;96540.66;5026721;28;20136;-81
2021/05/11 14:22:29;;;;;;;14.88;5.15;;;;;;;30.08;52.73;96544.25;5022691;28;20049;-80
2021/05/11 14:24:55;;;;;;;20.90;5.30;;;;;;;29.01;54.30;96527.88;5035496;28;20037;-78
2021/05/11 14:27:22;;;;;;;11.50;5.57;;;;;;;27.32;64.39;96517.78;5048084;28;20160;-78
2021/05/11 14:29:50;;;;;;;16.48;5.30;;;;;;;25.72;78.96;96532.50;5044865;28;20104;-77
2021/05/11 14:32:18;;;;;;;12.88;5.82;;;;;;;25.07;88.17;96529.16;5034359;28;20099;-80
2021/05/11 14:34:47;;;;;;;9.13;5.75;;;;;;;24.95;96.19;96532.66;5039465;28;20140;-77
2021/05/11 14:37:17;;;;;;;16.17;6.50;;;;;;;24.31;100.00;96530.69;5034621;28;20045;-80
2021/05/11 14:39:45;;;;;;;14.05;7.22;;;;;;;24.05;100.00;96524.16;5036174;28;20159;-79
2021/05/11 14:42:14;;;;;;;15.23;6.90;;;;;;;23.98;100.00;96508.47;5035142;28;20060;-78
2021/05/11 14:44:40;;;;;;;12.30;6.63;;;;;;;23.86;100.00;96516.66;5036015;28;20443;-82
2021/05/11 14:47:09;;;;;;;12.68;6.88;;;;;;;24.14;100.00;96529.88;5031221;28;20104;-79
2021/05/11 14:49:39;;;;;;;13.38;6.88;;;;;;;23.97;100.00;96526.28;5035353;28;20115;-79
2021/05/11 14:52:12;;;;;;;25.40;7.70;;;;;;;24.08;100.00;96539.88;5018142;28;20068;-77
2021/05/11 14:54:43;;;;;;;19.35;7.82;;;;;;;23.56;100.00;96540.59;5023163;28;20119;-80
2021/05/11 14:57:10;;;;;;;12.23;7.63;;;;;;;23.46;100.00;96532.53;5022026;28;20049;-85
2021/05/11 14:59:44;;;;;;;22.85;8.23;;;;;;;23.10;100.00;96528.88;5040412;28;20045;-78
2021/05/11 15:02:14;;;;;;;16.23;8.18;;;;;;;22.70;100.00;96528.03;5020018;28;20460;-81
2021/05/11 15:04:44;;;;;;;18.25;8.70;;;;;;;22.46;100.00;96527.22;5034469;28;20053;-79
2021/05/11 15:07:12;;;;;;;17.13;8.48;;;;;;;22.15;100.00;96532.03;5017960;28;20414;-79
2021/05/11 15:09:42;;;;;;;15.65;9.07;;;;;;;22.16;100.00;96517.06;5026786;28;20049;-79
2021/05/11 15:12:12;;;;;;;18.80;9.25;;;;;;;22.19;100.00;96520.97;5036527;28;20554;-78
2021/05/11 15:14:41;;;;;;;20.40;8.60;;;;;;;22.10;100.00;96527.00;5030560;28;20088;-80
2021/05/11 15:17:58;;;;;;;18.83;9.27;;;;;;;22.22;100.00;96523.66;5030536;28;20053;-79
2021/05/11 15:19:58;;;;;;;20.30;9.20;;;;;;;22.10;100.00;96515.97;5043623;28;20049;-78
2021/05/11 15:22:27;;;;;;;20.75;9.00;;;;;;;22.26;100.00;96526.34;5055244;28;20040;-79
2021/05/11 15:24:54;;;;;;;13.73;9.00;;;;;;;22.20;100.00;96517.00;5034597;28;20041;-79
2021/05/11 15:27:21;;;;;;;17.25;9.10;;;;;;;22.16;100.00;96514.31;5033274;28;20041;-79
2021/05/11 15:29:49;;;;;;;18.02;9.27;;;;;;;22.09;100.00;96521.91;5029078;28;20041;-78
2021/05/11 15:32:52;;;;;;;20.25;9.95;;;;;;;21.94;100.00;96534.34;5031146;28;20034;-79
2021/05/11 15:35:34;;;;;;;14.45;9.40;;;;;;;21.79;100.00;96524.66;5038011;28;20042;-78
2021/05/11 15:38:03;;;;;;;17.83;9.68;;;;;;;21.56;100.00;96533.63;5024696;28;20064;-79
2021/05/11 15:40:35;;;;;;;17.33;9.70;;;;;;;21.48;100.00;96532.94;5059001;28;20041;-76
2021/05/11 15:43:06;;;;;;;14.57;9.52;;;;;;;21.16;100.00;96540.81;5050810;28;20072;-79
2021/05/11 15:45:33;;;;;;;20.08;9.45;;;;;;;21.11;100.00;96555.03;5048351;28;20658;-79
2021/05/11 15:48:08;;;;;;;15.60;9.68;;;;;;;21.04;100.00;96550.31;5045050;28;20052;-77
2021/05/11 15:50:37;;;;;;;20.02;9.90;;;;;;;21.04;100.00;96550.31;5036643;28;20056;-77
2021/05/11 15:53:07;;;;;;;19.20;10.15;;;;;;;20.77;100.00;96546.69;5038738;28;20144;-81
2021/05/11 15:55:39;;;;;;;20.52;9.82;;;;;;;20.57;100.00;96544.91;5030632;28;20520;-78
2021/05/11 15:58:07;;;;;;;17.58;10.10;;;;;;;20.52;100.00;96557.88;5033395;28;20049;-79
2021/05/11 16:00:35;;;;;;;18.85;9.90;;;;;;;20.39;100.00;96565.06;5014105;28;20096;-79
2021/05/11 16:03:04;;;;;;;19.48;10.52;;;;;;;20.25;100.00;96575.38;5028203;28;20053;-86